Time;durP1;ratioP1;P1;durP2;ratioP2;P2;SDS_P1;SDS_P2;PMS_P1;PMS_P2;Temp;Humidity;BMP_temperature;BMP_pressure;BME280_temperature;BME280_humidity;BME280_pressure;Samples;Min_cycle;Max_cycle;Signal;HPM_P1;HPM_P2
2023/12/09 00:00:44;;;;;;;31.63;14.57;;;;;;;;;;2085853;28;20037;-78
2023/12/09 00:02:05;;;;;;;58.45;14.73;;;;;;;;;;2087412;28;20037;-81
2023/12/09 00:03:26;;;;;;;36.95;15.30;;;;;;;;;;2074631;28;20394;-78
2023/12/09 00:04:47;;;;;;;33.15;15.43;;;;;;;;;;2078898;28;20033;-79
2023/12/09 00:06:08;;;;;;;36.53;14.98;;;;;;;;;;2087614;28;20033;-79
2023/12/09 00:07:29;;;;;;;42.70;15.13;;;;;;;;;;2087167;28;20417;-78
2023/12/09 00:08:50;;;;;;;39.13;15.05;;;;;;;;;;2085185;28;20068;-78
2023/12/09 00:10:11;;;;;;;35.15;14.52;;;;;;;;;;2078103;28;20041;-78
2023/12/09 00:11:32;;;;;;;35.55;14.18;;;;;;;;;;2077585;28;20428;-79
2023/12/09 00:12:54;;;;;;;35.10;14.85;;;;;;;;;;2080839;28;20025;-78
2023/12/09 00:14:15;;;;;;;37.22;15.80;;;;;;;;;;2078015;28;20413;-79
2023/12/09 00:15:36;;;;;;;36.80;13.75;;;;;;;;;;2077126;28;20033;-79
2023/12/09 00:16:57;;;;;;;32.40;14.52;;;;;;;;;;2086793;28;20029;-79
2023/12/09 00:18:18;;;;;;;36.47;15.45;;;;;;;;;;2083814;28;22190;-81
2023/12/09 00:19:39;;;;;;;35.15;14.65;;;;;;;;;;2078841;28;20084;-77
2023/12/09 00:20:59;;;;;;;32.00;15.23;;;;;;;;;;2082526;28;20107;-77
2023/12/09 00:22:20;;;;;;;41.42;14.27;;;;;;;;;;2088002;28;20033;-78
2023/12/09 00:23:41;;;;;;;41.15;15.52;;;;;;;;;;2088897;28;20032;-77
2023/12/09 00:25:03;;;;;;;39.50;15.93;;;;;;;;;;2076254;28;20025;-78
2023/12/09 00:26:24;;;;;;;37.45;14.45;;;;;;;;;;2077443;28;20118;-78
2023/12/09 00:27:45;;;;;;;35.85;14.10;;;;;;;;;;2076320;28;20029;-77
2023/12/09 00:29:06;;;;;;;35.55;16.08;;;;;;;;;;2080863;28;20499;-78
2023/12/09 00:30:27;;;;;;;31.75;14.93;;;;;;;;;;2076557;28;20056;-78
2023/12/09 00:31:48;;;;;;;32.88;14.75;;;;;;;;;;2080819;28;20440;-77
2023/12/09 00:33:09;;;;;;;38.42;15.60;;;;;;;;;;2084514;28;21298;-77
2023/12/09 00:34:30;;;;;;;38.55;14.95;;;;;;;;;;2086614;28;20500;-77
2023/12/09 00:35:51;;;;;;;29.63;13.90;;;;;;;;;;2078048;28;20037;-78
2023/12/09 00:37:12;;;;;;;34.28;15.68;;;;;;;;;;2082712;28;20477;-77
2023/12/09 00:38:33;;;;;;;38.35;14.65;;;;;;;;;;2082598;28;20037;-78
2023/12/09 00:39:54;;;;;;;38.22;14.35;;;;;;;;;;2078865;28;20091;-77
2023/12/09 00:41:15;;;;;;;37.60;14.10;;;;;;;;;;2086234;28;20504;-77
2023/12/09 00:42:36;;;;;;;40.45;14.70;;;;;;;;;;2085658;28;20083;-77
2023/12/09 00:43:57;;;;;;;37.08;14.57;;;;;;;;;;2075914;28;20137;-77
2023/12/09 00:45:18;;;;;;;46.22;15.32;;;;;;;;;;2078774;28;20068;-77
2023/12/09 00:46:38;;;;;;;25.52;13.52;;;;;;;;;;2073560;28;20029;-77
2023/12/09 00:47:59;;;;;;;41.33;17.08;;;;;;;;;;2081366;28;20041;-77
2023/12/09 00:49:20;;;;;;;35.28;13.90;;;;;;;;;;2086359;28;20029;-77
2023/12/09 00:50:41;;;;;;;36.47;15.32;;;;;;;;;;2083815;28;20542;-77
2023/12/09 00:52:02;;;;;;;35.40;13.48;;;;;;;;;;2077538;28;20033;-77
2023/12/09 00:53:23;;;;;;;33.85;15.93;;;;;;;;;;2073487;28;20464;-77
2023/12/09 00:54:44;;;;;;;34.70;14.32;;;;;;;;;;2082841;28;20033;-78
2023/12/09 00:56:05;;;;;;;37.65;15.23;;;;;;;;;;2079438;28;20042;-78
2023/12/09 00:57:26;;;;;;;39.08;15.80;;;;;;;;;;2078070;28;20162;-77
2023/12/09 00:58:47;;;;;;;49.97;16.65;;;;;;;;;;2084954;28;20041;-78
2023/12/09 01:00:08;;;;;;;40.35;15.02;;;;;;;;;;2076482;28;20556;-78
2023/12/09 01:01:29;;;;;;;38.35;14.68;;;;;;;;;;2082645;28;20033;-78
2023/12/09 01:02:50;;;;;;;45.67;14.90;;;;;;;;;;2085740;28;20435;-77
2023/12/09 01:04:11;;;;;;;35.83;16.00;;;;;;;;;;2076421;28;20110;-77
2023/12/09 01:05:32;;;;;;;33.45;14.55;;;;;;;;;;2078139;28;20026;-77
2023/12/09 01:06:53;;;;;;;31.33;14.57;;;;;;;;;;2076028;28;20104;-78
2023/12/09 01:08:14;;;;;;;37.63;16.23;;;;;;;;;;2072525;28;20034;-78
2023/12/09 01:09:35;;;;;;;39.03;14.82;;;;;;;;;;2071250;28;20072;-77
2023/12/09 01:10:55;;;;;;;38.55;14.48;;;;;;;;;;2080842;28;20029;-77
2023/12/09 01:12:16;;;;;;;38.55;14.18;;;;;;;;;;2075618;28;20408;-77
2023/12/09 01:13:37;;;;;;;32.35;14.60;;;;;;;;;;2083932;28;20104;-78
2023/12/09 01:14:58;;;;;;;44.17;15.77;;;;;;;;;;2076452;28;20041;-78
2023/12/09 01:16:19;;;;;;;38.30;16.92;;;;;;;;;;2082531;28;20029;-78
2023/12/09 01:17:40;;;;;;;38.20;15.50;;;;;;;;;;2077150;28;20034;-77
2023/12/09 01:19:02;;;;;;;34.30;15.20;;;;;;;;;;2083687;28;20554;-77
2023/12/09 01:20:24;;;;;;;;;;;;;;;;;;2084460;28;20037;-77
2023/12/09 01:21:45;;;;;;;41.28;15.30;;;;;;;;;;2085953;28;19944;-77
2023/12/09 01:23:06;;;;;;;33.65;14.75;;;;;;;;;;2086924;28;20036;-77
2023/12/09 01:24:27;;;;;;;37.03;14.95;;;;;;;;;;2078360;28;20033;-78
2023/12/09 01:25:47;;;;;;;45.60;16.15;;;;;;;;;;2073340;28;20092;-78
2023/12/09 01:27:08;;;;;;;41.78;14.23;;;;;;;;;;2074371;28;20041;-78
2023/12/09 01:28:29;;;;;;;23.33;13.77;;;;;;;;;;2081964;28;20037;-78
2023/12/09 01:29:50;;;;;;;35.28;15.50;;;;;;;;;;2086596;28;20369;-78
2023/12/09 01:31:11;;;;;;;47.90;16.83;;;;;;;;;;2086227;28;20028;-79
2023/12/09 01:32:32;;;;;;;39.28;14.77;;;;;;;;;;2087664;28;20116;-79
2023/12/09 01:33:53;;;;;;;38.13;16.10;;;;;;;;;;2074822;28;20037;-79
2023/12/09 01:35:14;;;;;;;37.75;14.23;;;;;;;;;;2074470;28;20064;-79
2023/12/09 01:36:34;;;;;;;34.42;15.32;;;;;;;;;;2082639;28;20041;-80
2023/12/09 01:37:58;;;;;;;28.70;15.70;;;;;;;;;;2077916;28;20096;-79
2023/12/09 01:39:19;;;;;;;41.92;15.73;;;;;;;;;;2074544;28;21438;-78
2023/12/09 01:40:40;;;;;;;39.92;15.00;;;;;;;;;;2087829;28;20134;-77
2023/12/09 01:42:02;;;;;;;32.22;15.02;;;;;;;;;;2085052;28;20029;-79
2023/12/09 01:43:23;;;;;;;41.80;14.23;;;;;;;;;;2085570;28;20029;-78
2023/12/09 01:44:44;;;;;;;33.60;15.32;;;;;;;;;;2076492;28;20030;-79
2023/12/09 01:46:06;;;;;;;32.03;14.75;;;;;;;;;;2085537;28;20500;-79
2023/12/09 01:47:27;;;;;;;40.90;15.35;;;;;;;;;;2077130;28;20029;-79
2023/12/09 01:48:48;;;;;;;48.40;15.35;;;;;;;;;;2076732;28;20394;-79
2023/12/09 01:50:09;;;;;;;29.83;14.15;;;;;;;;;;2075823;28;20141;-79
2023/12/09 01:51:31;;;;;;;36.20;13.88;;;;;;;;;;2071180;28;20034;-79
2023/12/09 01:52:52;;;;;;;42.05;14.57;;;;;;;;;;2073613;28;20037;-79
2023/12/09 01:54:13;;;;;;;29.67;13.65;;;;;;;;;;2074872;28;20029;-79
2023/12/09 01:55:35;;;;;;;46.00;15.88;;;;;;;;;;2072170;28;20042;-79
2023/12/09 01:56:56;;;;;;;32.55;15.27;;;;;;;;;;2081650;28;20029;-78
2023/12/09 01:58:18;;;;;;;37.70;15.23;;;;;;;;;;2075848;28;20026;-79
2023/12/09 01:59:39;;;;;;;36.20;13.75;;;;;;;;;;2081696;28;20032;-78
2023/12/09 02:01:01;;;;;;;35.70;14.77;;;;;;;;;;2076073;28;20536;-79
2023/12/09 02:02:22;;;;;;;39.08;15.73;;;;;;;;;;2084234;28;20044;-79
2023/12/09 02:03:43;;;;;;;37.80;13.48;;;;;;;;;;2077518;28;20029;-79
2023/12/09 02:05:04;;;;;;;34.35;14.23;;;;;;;;;;2074735;28;20509;-78
2023/12/09 02:06:25;;;;;;;38.55;13.18;;;;;;;;;;2082951;28;20033;-79
2023/12/09 02:07:46;;;;;;;34.58;15.10;;;;;;;;;;2074725;28;20417;-79
2023/12/09 02:09:07;;;;;;;29.40;14.85;;;;;;;;;;2073406;28;20041;-78
2023/12/09 02:10:28;;;;;;;34.13;14.02;;;;;;;;;;2074478;28;20037;-79
2023/12/09 02:11:57;;;;;;;39.28;14.20;;;;;;;;;;2082777;28;20033;-79
2023/12/09 02:13:20;;;;;;;40.35;13.70;;;;;;;;;;2085676;28;20037;-79
2023/12/09 02:14:45;;;;;;;30.10;15.07;;;;;;;;;;2083264;28;20035;-78
2023/12/09 02:16:16;;;;;;;38.95;15.38;;;;;;;;;;2076381;28;20084;-79
2023/12/09 02:17:42;;;;;;;33.85;15.05;;;;;;;;;;2083139;28;20457;-79
2023/12/09 02:19:05;;;;;;;39.15;13.98;;;;;;;;;;2072875;28;20037;-79
2023/12/09 02:20:26;;;;;;;35.42;15.25;;;;;;;;;;2083145;28;20091;-79
2023/12/09 02:22:03;;;;;;;24.05;13.25;;;;;;;;;;2083922;28;20464;-79
2023/12/09 02:23:24;;;;;;;27.15;13.98;;;;;;;;;;2087072;28;20041;-79
2023/12/09 02:24:46;;;;;;;39.38;14.65;;;;;;;;;;2084116;28;20559;-79
2023/12/09 02:26:12;;;;;;;32.20;13.43;;;;;;;;;;2076239;28;20038;-79
2023/12/09 02:27:40;;;;;;;44.65;14.68;;;;;;;;;;2084206;28;20481;-79
2023/12/09 02:29:04;;;;;;;32.15;13.48;;;;;;;;;;2085156;28;20041;-79
2023/12/09 02:30:28;;;;;;;40.60;15.32;;;;;;;;;;2082780;28;20549;-79
2023/12/09 02:31:51;;;;;;;32.67;15.15;;;;;;;;;;2074365;28;20546;-79
2023/12/09 02:33:14;;;;;;;37.42;14.05;;;;;;;;;;2078603;28;20029;-79
2023/12/09 02:34:39;;;;;;;27.98;14.35;;;;;;;;;;2081932;28;20560;-79
2023/12/09 02:36:01;;;;;;;32.13;14.50;;;;;;;;;;2082854;28;20099;-79
2023/12/09 02:37:22;;;;;;;37.55;13.75;;;;;;;;;;2077486;28;20355;-80
2023/12/09 02:38:43;;;;;;;45.33;15.43;;;;;;;;;;2084528;28;20124;-79
2023/12/09 02:40:09;;;;;;;52.22;19.27;;;;;;;;;;2084388;28;20064;-79
2023/12/09 02:41:30;;;;;;;38.33;14.82;;;;;;;;;;2083842;28;20029;-76
2023/12/09 02:42:52;;;;;;;29.08;13.70;;;;;;;;;;2077949;28;20029;-79
2023/12/09 02:44:12;;;;;;;33.63;14.60;;;;;;;;;;2077756;28;20064;-78
2023/12/09 02:45:33;;;;;;;40.83;14.60;;;;;;;;;;2082299;28;20112;-79
2023/12/09 02:46:55;;;;;;;43.42;16.00;;;;;;;;;;2077592;28;20026;-78
2023/12/09 02:48:16;;;;;;;31.08;14.38;;;;;;;;;;2072909;28;20029;-79
2023/12/09 02:49:37;;;;;;;28.77;13.50;;;;;;;;;;2082414;28;20025;-80
2023/12/09 02:50:58;;;;;;;35.65;14.57;;;;;;;;;;2083681;28;20025;-79
2023/12/09 02:52:19;;;;;;;34.55;14.13;;;;;;;;;;2077946;28;20046;-80
2023/12/09 02:53:39;;;;;;;37.38;14.57;;;;;;;;;;2083507;28;20040;-79
2023/12/09 02:55:00;;;;;;;48.53;14.85;;;;;;;;;;2084615;28;21687;-80
2023/12/09 02:56:21;;;;;;;38.28;14.75;;;;;;;;;;2080456;28;20095;-79
2023/12/09 02:57:42;;;;;;;43.53;14.30;;;;;;;;;;2077195;28;20038;-79
2023/12/09 02:59:03;;;;;;;34.55;15.13;;;;;;;;;;2077002;28;20037;-79
2023/12/09 03:00:24;;;;;;;38.17;14.65;;;;;;;;;;2075038;28;20171;-79
2023/12/09 03:01:45;;;;;;;35.90;13.70;;;;;;;;;;2087181;28;20028;-79
2023/12/09 03:03:06;;;;;;;43.55;14.65;;;;;;;;;;2088688;28;20412;-79
2023/12/09 03:04:27;;;;;;;36.20;13.27;;;;;;;;;;2088592;28;20040;-79
2023/12/09 03:05:47;;;;;;;41.83;14.15;;;;;;;;;;2094402;28;20032;-79
2023/12/09 03:07:08;;;;;;;37.53;13.35;;;;;;;;;;2087340;28;20489;-79
2023/12/09 03:08:29;;;;;;;43.25;14.40;;;;;;;;;;2081447;28;20041;-79
2023/12/09 03:09:50;;;;;;;33.72;13.30;;;;;;;;;;2078776;28;20030;-79
2023/12/09 03:11:11;;;;;;;42.60;15.57;;;;;;;;;;2082823;28;20024;-80
2023/12/09 03:12:32;;;;;;;34.53;14.38;;;;;;;;;;2081312;28;20516;-79
2023/12/09 03:13:53;;;;;;;29.83;13.45;;;;;;;;;;2081340;28;20030;-79
2023/12/09 03:15:14;;;;;;;34.28;13.95;;;;;;;;;;2080187;28;20037;-79
2023/12/09 03:16:38;;;;;;;33.58;14.40;;;;;;;;;;2084844;28;20037;-79
2023/12/09 03:17:58;;;;;;;31.30;12.73;;;;;;;;;;2090083;28;20037;-79
2023/12/09 03:19:19;;;;;;;41.30;13.85;;;;;;;;;;2080214;28;20042;-79
2023/12/09 03:20:40;;;;;;;39.05;14.23;;;;;;;;;;2087338;28;20088;-78
2023/12/09 03:22:01;;;;;;;33.67;14.68;;;;;;;;;;2074734;28;20037;-79
2023/12/09 03:23:22;;;;;;;37.15;14.20;;;;;;;;;;2079384;28;20243;-79
2023/12/09 03:24:47;;;;;;;40.67;13.95;;;;;;;;;;2073075;28;20030;-79
2023/12/09 03:26:15;;;;;;;42.28;13.45;;;;;;;;;;2083400;28;20030;-79
2023/12/09 03:27:36;;;;;;;33.47;14.00;;;;;;;;;;2089340;28;20504;-79
2023/12/09 03:28:57;;;;;;;33.55;13.70;;;;;;;;;;2081079;28;20033;-79
2023/12/09 03:30:18;;;;;;;35.85;14.27;;;;;;;;;;2081302;28;20084;-79
2023/12/09 03:31:39;;;;;;;34.95;13.65;;;;;;;;;;2082845;28;20516;-79
2023/12/09 03:33:00;;;;;;;32.92;14.13;;;;;;;;;;2078530;28;20033;-79
2023/12/09 03:34:21;;;;;;;37.05;14.73;;;;;;;;;;2081737;28;20029;-79
2023/12/09 03:35:42;;;;;;;36.17;14.90;;;;;;;;;;2087019;28;20029;-79
2023/12/09 03:37:03;;;;;;;37.70;16.73;;;;;;;;;;2083264;28;20448;-79
2023/12/09 03:38:24;;;;;;;45.00;15.15;;;;;;;;;;2073675;28;20110;-79
2023/12/09 03:39:45;;;;;;;37.92;15.95;;;;;;;;;;2080680;28;20033;-79
2023/12/09 03:41:06;;;;;;;33.38;13.38;;;;;;;;;;2086665;28;20130;-79
2023/12/09 03:42:27;;;;;;;28.92;13.85;;;;;;;;;;2088116;28;20033;-79
2023/12/09 03:43:48;;;;;;;42.47;14.80;;;;;;;;;;2086876;28;20114;-79
2023/12/09 03:45:09;;;;;;;41.55;15.60;;;;;;;;;;2086258;28;20082;-78
2023/12/09 03:46:30;;;;;;;42.00;13.63;;;;;;;;;;2077882;28;20029;-79
2023/12/09 03:47:51;;;;;;;34.60;14.55;;;;;;;;;;2083478;28;20106;-78
2023/12/09 03:49:12;;;;;;;40.58;15.70;;;;;;;;;;2088653;28;20033;-78
2023/12/09 03:50:33;;;;;;;37.75;14.98;;;;;;;;;;2084566;28;20115;-78
2023/12/09 03:51:53;;;;;;;35.30;14.20;;;;;;;;;;2077801;28;20095;-78
2023/12/09 03:53:14;;;;;;;36.20;14.40;;;;;;;;;;2076670;28;20034;-78
2023/12/09 03:54:36;;;;;;;38.80;14.88;;;;;;;;;;2082324;28;20043;-79
2023/12/09 03:55:57;;;;;;;40.50;14.20;;;;;;;;;;2077714;28;20029;-79
2023/12/09 03:57:18;;;;;;;34.72;13.73;;;;;;;;;;2084104;28;20558;-79
2023/12/09 03:58:39;;;;;;;37.63;13.82;;;;;;;;;;2077156;28;20039;-79
2023/12/09 04:00:00;;;;;;;36.53;13.10;;;;;;;;;;2078196;28;20026;-78
2023/12/09 04:01:24;;;;;;;36.88;13.15;;;;;;;;;;2083251;28;20025;-80
2023/12/09 04:02:45;;;;;;;37.40;15.18;;;;;;;;;;2076224;28;20022;-79
2023/12/09 04:04:06;;;;;;;38.13;15.75;;;;;;;;;;2075940;28;20045;-78
2023/12/09 04:05:27;;;;;;;27.73;13.30;;;;;;;;;;2082068;28;20037;-80
2023/12/09 04:06:49;;;;;;;29.33;13.57;;;;;;;;;;2075455;28;20021;-79
2023/12/09 04:08:10;;;;;;;39.30;13.93;;;;;;;;;;2085203;28;20029;-79
2023/12/09 04:09:31;;;;;;;32.65;13.43;;;;;;;;;;2084982;28;20044;-79
2023/12/09 04:10:52;;;;;;;34.95;13.70;;;;;;;;;;2075372;28;20048;-79
2023/12/09 04:12:13;;;;;;;31.10;13.73;;;;;;;;;;2076283;28;20042;-80
2023/12/09 04:13:34;;;;;;;41.88;13.63;;;;;;;;;;2075148;28;20033;-79
2023/12/09 04:14:54;;;;;;;35.88;14.55;;;;;;;;;;2075258;28;20109;-79
2023/12/09 04:16:15;;;;;;;38.47;14.32;;;;;;;;;;2077641;28;20037;-79
2023/12/09 04:17:36;;;;;;;35.78;13.02;;;;;;;;;;2076680;28;20041;-79
2023/12/09 04:18:57;;;;;;;33.70;13.93;;;;;;;;;;2083036;28;20520;-79
2023/12/09 04:20:18;;;;;;;44.47;14.90;;;;;;;;;;2088864;28;20052;-79
2023/12/09 04:21:39;;;;;;;35.92;14.32;;;;;;;;;;2076152;28;20053;-79
2023/12/09 04:23:00;;;;;;;31.33;12.88;;;;;;;;;;2072162;28;20041;-77
2023/12/09 04:24:23;;;;;;;35.88;13.73;;;;;;;;;;2083878;28;20029;-79
2023/12/09 04:25:44;;;;;;;35.20;13.43;;;;;;;;;;2086295;28;20037;-79
2023/12/09 04:27:05;;;;;;;36.65;15.30;;;;;;;;;;2086827;28;20547;-79
2023/12/09 04:28:26;;;;;;;35.38;15.40;;;;;;;;;;2080052;28;20022;-79
2023/12/09 04:29:47;;;;;;;35.10;13.48;;;;;;;;;;2086244;28;20040;-79
2023/12/09 04:31:08;;;;;;;39.03;14.60;;;;;;;;;;2079690;28;20032;-79
2023/12/09 04:32:29;;;;;;;37.63;13.32;;;;;;;;;;2080312;28;20346;-79
2023/12/09 04:33:50;;;;;;;35.83;13.57;;;;;;;;;;2080544;28;20029;-79
2023/12/09 04:35:11;;;;;;;35.35;13.48;;;;;;;;;;2076630;28;20123;-79
2023/12/09 04:36:32;;;;;;;34.53;14.20;;;;;;;;;;2074086;28;20026;-81
2023/12/09 04:37:53;;;;;;;32.90;13.25;;;;;;;;;;2079742;28;20038;-77
2023/12/09 04:39:14;;;;;;;33.63;13.93;;;;;;;;;;2076852;28;20432;-78
2023/12/09 04:40:35;;;;;;;33.70;14.27;;;;;;;;;;2083158;28;20041;-77
2023/12/09 04:41:56;;;;;;;34.05;14.07;;;;;;;;;;2085062;28;20044;-77
2023/12/09 04:43:17;;;;;;;43.50;14.15;;;;;;;;;;2078181;28;20026;-77
2023/12/09 04:44:38;;;;;;;30.55;13.13;;;;;;;;;;2083881;28;20131;-77
2023/12/09 04:46:00;;;;;;;32.42;13.25;;;;;;;;;;2078284;28;20030;-77
2023/12/09 04:47:21;;;;;;;32.17;13.38;;;;;;;;;;2077568;28;20026;-77
2023/12/09 04:48:43;;;;;;;41.80;13.07;;;;;;;;;;2084650;28;20025;-77
2023/12/09 04:50:04;;;;;;;32.47;12.77;;;;;;;;;;2075402;28;20463;-77
2023/12/09 04:51:26;;;;;;;37.55;14.88;;;;;;;;;;2084559;28;20079;-78
2023/12/09 04:52:46;;;;;;;33.13;13.45;;;;;;;;;;2085469;28;20106;-77
2023/12/09 04:54:07;;;;;;;33.20;13.02;;;;;;;;;;2081826;28;20353;-77
2023/12/09 04:55:28;;;;;;;35.63;13.35;;;;;;;;;;2076177;28;20037;-77
2023/12/09 04:56:49;;;;;;;43.42;16.00;;;;;;;;;;2082307;28;20025;-77
2023/12/09 04:58:10;;;;;;;23.17;13.07;;;;;;;;;;2078810;28;20104;-77
2023/12/09 04:59:31;;;;;;;38.00;14.13;;;;;;;;;;2083201;28;20053;-77
2023/12/09 05:00:52;;;;;;;32.55;12.75;;;;;;;;;;2082056;28;20033;-77
2023/12/09 05:02:13;;;;;;;29.00;11.70;;;;;;;;;;2073384;28;20034;-80
2023/12/09 05:03:34;;;;;;;30.42;14.13;;;;;;;;;;2079024;28;20029;-80
2023/12/09 05:04:55;;;;;;;40.05;12.85;;;;;;;;;;2080323;28;20517;-77
2023/12/09 05:06:15;;;;;;;30.15;13.43;;;;;;;;;;2087180;28;20111;-77
2023/12/09 05:07:36;;;;;;;30.05;13.07;;;;;;;;;;2089296;28;20033;-79
2023/12/09 05:08:57;;;;;;;38.72;13.77;;;;;;;;;;2079319;28;20517;-77
2023/12/09 05:10:18;;;;;;;39.67;13.60;;;;;;;;;;2084159;28;20041;-78
2023/12/09 05:11:39;;;;;;;28.40;13.65;;;;;;;;;;2079007;28;20076;-78
2023/12/09 05:13:00;;;;;;;35.75;14.05;;;;;;;;;;2079031;28;20076;-78
2023/12/09 05:14:21;;;;;;;29.38;13.05;;;;;;;;;;2082239;28;20484;-78
2023/12/09 05:15:42;;;;;;;28.75;12.15;;;;;;;;;;2078769;28;20041;-78
2023/12/09 05:17:03;;;;;;;33.15;13.70;;;;;;;;;;2072720;28;20037;-78
2023/12/09 05:18:24;;;;;;;29.65;12.00;;;;;;;;;;2085897;28;20037;-77
2023/12/09 05:19:45;;;;;;;40.88;14.70;;;;;;;;;;2085644;28;20040;-77
2023/12/09 05:21:06;;;;;;;28.30;13.98;;;;;;;;;;2080251;28;20367;-77
2023/12/09 05:22:26;;;;;;;39.05;12.95;;;;;;;;;;2091981;28;20440;-78
2023/12/09 05:23:47;;;;;;;29.00;12.55;;;;;;;;;;2081490;28;20060;-78
2023/12/09 05:25:08;;;;;;;26.52;13.00;;;;;;;;;;2080400;28;20049;-78
2023/12/09 05:26:29;;;;;;;36.78;13.07;;;;;;;;;;2082830;28;20029;-77
2023/12/09 05:27:50;;;;;;;29.83;12.88;;;;;;;;;;2088916;28;20021;-78
2023/12/09 05:29:11;;;;;;;33.42;12.32;;;;;;;;;;2085630;28;20045;-78
2023/12/09 05:30:32;;;;;;;32.80;12.98;;;;;;;;;;2080742;28;20489;-78
2023/12/09 05:31:53;;;;;;;31.55;13.18;;;;;;;;;;2074979;28;20034;-77
2023/12/09 05:33:14;;;;;;;31.67;13.05;;;;;;;;;;2083519;28;20033;-77
2023/12/09 05:34:35;;;;;;;30.30;12.70;;;;;;;;;;2085235;28;20083;-77
2023/12/09 05:35:55;;;;;;;36.00;12.73;;;;;;;;;;2077875;28;20037;-77
2023/12/09 05:37:16;;;;;;;33.75;13.77;;;;;;;;;;2074998;28;20444;-78
2023/12/09 05:38:38;;;;;;;32.53;14.32;;;;;;;;;;2081980;28;20109;-77
2023/12/09 05:39:58;;;;;;;34.42;12.88;;;;;;;;;;2083031;28;20041;-78
2023/12/09 05:41:19;;;;;;;32.00;12.45;;;;;;;;;;2072728;28;20500;-77
2023/12/09 05:42:40;;;;;;;27.48;12.63;;;;;;;;;;2074903;28;20033;-77
2023/12/09 05:44:01;;;;;;;30.70;12.85;;;;;;;;;;2076229;28;20096;-77
2023/12/09 05:45:22;;;;;;;32.70;11.65;;;;;;;;;;2085321;28;20045;-77
2023/12/09 05:46:43;;;;;;;24.83;13.05;;;;;;;;;;2086282;28;20045;-77
2023/12/09 05:48:04;;;;;;;32.70;13.63;;;;;;;;;;2085880;28;20102;-78
2023/12/09 05:49:25;;;;;;;30.38;13.98;;;;;;;;;;2076124;28;20038;-77
2023/12/09 05:50:46;;;;;;;25.30;12.27;;;;;;;;;;2079018;28;20060;-77
2023/12/09 05:52:06;;;;;;;34.40;14.13;;;;;;;;;;2083500;28;20063;-78
2023/12/09 05:53:27;;;;;;;26.83;12.57;;;;;;;;;;2076868;28;20034;-77
2023/12/09 05:54:48;;;;;;;32.50;12.80;;;;;;;;;;2076177;28;20729;-78
2023/12/09 05:56:11;;;;;;;38.40;14.93;;;;;;;;;;2079472;28;20476;-78
2023/12/09 05:57:32;;;;;;;35.03;14.02;;;;;;;;;;2083699;28;20029;-77
2023/12/09 05:58:53;;;;;;;34.95;12.93;;;;;;;;;;2077087;28;20476;-77
2023/12/09 06:00:14;;;;;;;31.08;13.07;;;;;;;;;;2072993;28;20041;-77
2023/12/09 06:01:35;;;;;;;29.30;12.32;;;;;;;;;;2084587;28;20040;-77
2023/12/09 06:02:56;;;;;;;32.78;12.07;;;;;;;;;;2076960;28;20045;-77
2023/12/09 06:04:17;;;;;;;32.42;12.73;;;;;;;;;;2077450;28;20106;-78
2023/12/09 06:05:37;;;;;;;40.53;14.60;;;;;;;;;;2076480;28;20033;-77
2023/12/09 06:06:59;;;;;;;29.70;12.43;;;;;;;;;;2075451;28;20026;-77
2023/12/09 06:08:19;;;;;;;29.20;12.43;;;;;;;;;;2083554;28;20474;-77
2023/12/09 06:09:40;;;;;;;32.38;13.27;;;;;;;;;;2083919;28;20111;-76
2023/12/09 06:11:01;;;;;;;32.60;12.27;;;;;;;;;;2084285;28;20037;-77
2023/12/09 06:12:22;;;;;;;35.50;13.25;;;;;;;;;;2078003;28;20029;-77
2023/12/09 06:13:43;;;;;;;33.90;14.18;;;;;;;;;;2080870;28;20091;-77
2023/12/09 06:15:05;;;;;;;26.98;11.80;;;;;;;;;;2076967;28;20023;-77
2023/12/09 06:16:26;;;;;;;34.67;14.10;;;;;;;;;;2075726;28;20064;-77
2023/12/09 06:17:47;;;;;;;39.10;12.85;;;;;;;;;;2075649;28;20485;-78
2023/12/09 06:19:08;;;;;;;28.50;12.82;;;;;;;;;;2080863;28;20111;-77
2023/12/09 06:20:29;;;;;;;36.22;13.75;;;;;;;;;;2076600;28;20050;-78
2023/12/09 06:21:50;;;;;;;30.75;13.55;;;;;;;;;;2075765;28;20528;-77
2023/12/09 06:23:11;;;;;;;32.03;12.48;;;;;;;;;;2079709;28;20033;-77
2023/12/09 06:24:32;;;;;;;36.95;13.65;;;;;;;;;;2087178;28;20047;-78
2023/12/09 06:25:53;;;;;;;25.58;12.43;;;;;;;;;;2087333;28;20029;-77
2023/12/09 06:27:14;;;;;;;34.72;12.98;;;;;;;;;;2079881;28;20030;-77
2023/12/09 06:28:36;;;;;;;30.45;12.48;;;;;;;;;;2073670;28;20073;-77
2023/12/09 06:29:57;;;;;;;31.60;12.45;;;;;;;;;;2083987;28;20075;-77
2023/12/09 06:31:18;;;;;;;35.10;13.95;;;;;;;;;;2086609;28;20501;-77
2023/12/09 06:32:39;;;;;;;31.98;11.88;;;;;;;;;;2085111;28;20098;-77
2023/12/09 06:33:59;;;;;;;30.13;12.52;;;;;;;;;;2078096;28;20034;-77
2023/12/09 06:35:20;;;;;;;24.73;11.65;;;;;;;;;;2079260;28;20033;-79
2023/12/09 06:36:41;;;;;;;32.85;13.88;;;;;;;;;;2078125;28;20117;-77
2023/12/09 06:38:02;;;;;;;33.70;12.75;;;;;;;;;;2087045;28;20025;-77
2023/12/09 06:39:23;;;;;;;33.25;13.55;;;;;;;;;;2086859;28;20087;-79
2023/12/09 06:40:44;;;;;;;21.77;11.10;;;;;;;;;;2085391;28;20037;-79
2023/12/09 06:42:05;;;;;;;24.50;12.18;;;;;;;;;;2076067;28;20044;-79
2023/12/09 06:43:26;;;;;;;21.60;12.57;;;;;;;;;;2077593;28;20029;-78
2023/12/09 06:44:47;;;;;;;26.40;12.35;;;;;;;;;;2085852;28;20674;-79
2023/12/09 06:46:08;;;;;;;28.98;11.15;;;;;;;;;;2087920;28;20048;-78
2023/12/09 06:47:29;;;;;;;35.85;13.02;;;;;;;;;;2078514;28;20091;-78
2023/12/09 06:48:50;;;;;;;32.35;12.57;;;;;;;;;;2081733;28;20033;-78
2023/12/09 06:50:11;;;;;;;30.30;13.43;;;;;;;;;;2081650;28;20037;-78
2023/12/09 06:51:32;;;;;;;29.80;12.32;;;;;;;;;;2077133;28;20378;-78
2023/12/09 06:52:53;;;;;;;27.20;11.80;;;;;;;;;;2086201;28;20110;-78
2023/12/09 06:54:14;;;;;;;25.48;12.15;;;;;;;;;;2089343;28;20029;-79
2023/12/09 06:55:34;;;;;;;24.15;11.73;;;;;;;;;;2087113;28;20037;-78
2023/12/09 06:56:56;;;;;;;26.45;12.43;;;;;;;;;;2088419;28;20032;-78
2023/12/09 06:58:17;;;;;;;30.30;12.38;;;;;;;;;;2080675;28;20068;-78
2023/12/09 06:59:38;;;;;;;26.30;11.73;;;;;;;;;;2084662;28;20046;-78
2023/12/09 07:00:59;;;;;;;24.58;12.73;;;;;;;;;;2076859;28;20117;-78
2023/12/09 07:02:20;;;;;;;22.90;11.68;;;;;;;;;;2087983;28;20041;-78
2023/12/09 07:03:41;;;;;;;27.40;11.57;;;;;;;;;;2090633;28;20040;-78
2023/12/09 07:05:05;;;;;;;28.02;12.73;;;;;;;;;;2082112;28;20120;-79
2023/12/09 07:06:26;;;;;;;30.23;12.48;;;;;;;;;;2086617;28;20090;-78
2023/12/09 07:07:48;;;;;;;27.77;11.98;;;;;;;;;;2073816;28;20026;-78
2023/12/09 07:09:09;;;;;;;21.40;11.05;;;;;;;;;;2080357;28;20030;-79
2023/12/09 07:10:30;;;;;;;25.75;10.85;;;;;;;;;;2079018;28;20497;-79
2023/12/09 07:11:51;;;;;;;34.47;12.90;;;;;;;;;;2090259;28;20075;-79
2023/12/09 07:13:12;;;;;;;37.45;13.07;;;;;;;;;;2090594;28;20033;-79
2023/12/09 07:14:33;;;;;;;24.73;11.70;;;;;;;;;;2080566;28;20030;-79
2023/12/09 07:15:54;;;;;;;24.67;11.70;;;;;;;;;;2088833;28;20036;-80
2023/12/09 07:17:15;;;;;;;23.73;11.00;;;;;;;;;;2081492;28;20033;-79
2023/12/09 07:18:43;;;;;;;23.70;11.85;;;;;;;;;;2079618;28;20036;-79
2023/12/09 07:20:05;;;;;;;29.55;12.20;;;;;;;;;;2081228;28;20049;-79
2023/12/09 07:21:29;;;;;;;22.00;11.02;;;;;;;;;;2088180;28;20060;-79
2023/12/09 07:22:50;;;;;;;25.13;11.18;;;;;;;;;;2096190;28;20032;-79
2023/12/09 07:24:11;;;;;;;23.95;10.82;;;;;;;;;;2091695;28;20033;-79
2023/12/09 07:25:32;;;;;;;34.28;12.35;;;;;;;;;;2085279;28;20029;-78
2023/12/09 07:26:53;;;;;;;26.52;12.80;;;;;;;;;;2082228;28;20033;-80
2023/12/09 07:28:14;;;;;;;34.40;12.05;;;;;;;;;;2087653;28;20370;-79
2023/12/09 07:29:35;;;;;;;22.52;11.02;;;;;;;;;;2085060;28;20033;-80
2023/12/09 07:30:56;;;;;;;20.17;10.30;;;;;;;;;;2078997;28;20029;-79
2023/12/09 07:32:17;;;;;;;23.23;10.88;;;;;;;;;;2084637;28;20393;-79
2023/12/09 07:33:38;;;;;;;30.83;11.80;;;;;;;;;;2077004;28;20037;-80
2023/12/09 07:34:59;;;;;;;28.55;13.00;;;;;;;;;;2085219;28;20051;-80
2023/12/09 07:36:20;;;;;;;27.92;11.88;;;;;;;;;;2079877;28;20064;-79
2023/12/09 07:37:41;;;;;;;35.33;11.93;;;;;;;;;;2086181;28;20037;-79
2023/12/09 07:39:02;;;;;;;30.55;12.52;;;;;;;;;;2077834;28;20034;-79
2023/12/09 07:40:23;;;;;;;23.25;12.30;;;;;;;;;;2070931;28;20166;-79
2023/12/09 07:41:44;;;;;;;21.60;10.73;;;;;;;;;;2074066;28;20595;-79
2023/12/09 07:43:06;;;;;;;21.60;10.82;;;;;;;;;;2075748;28;20761;-79
2023/12/09 07:44:27;;;;;;;26.30;12.77;;;;;;;;;;2073855;28;20071;-79
2023/12/09 07:45:48;;;;;;;22.75;11.32;;;;;;;;;;2077840;28;20049;-80
2023/12/09 07:47:09;;;;;;;32.17;12.30;;;;;;;;;;2075536;28;20414;-79
2023/12/09 07:48:30;;;;;;;31.20;12.38;;;;;;;;;;2083152;28;20075;-79
2023/12/09 07:49:51;;;;;;;24.20;12.43;;;;;;;;;;2084983;28;20091;-79
2023/12/09 07:51:11;;;;;;;23.45;12.27;;;;;;;;;;2080974;28;20037;-80
2023/12/09 07:52:32;;;;;;;23.35;11.35;;;;;;;;;;2084061;28;20033;-79
2023/12/09 07:53:53;;;;;;;25.58;11.73;;;;;;;;;;2077766;28;20033;-80